createdAt,value
2019-03-26T00:00:48.598Z,72.38
2019-03-26T00:03:18.233Z,72.50
2019-03-26T00:05:47.874Z,72.53
2019-03-26T00:08:17.511Z,72.65
2019-03-26T00:10:47.121Z,72.75
2019-03-26T00:13:16.663Z,72.87
2019-03-26T00:15:46.265Z,72.97
2019-03-26T00:18:15.883Z,73.12
2019-03-26T00:20:45.483Z,73.28
2019-03-26T00:23:14.946Z,73.39
2019-03-26T00:25:44.543Z,73.52
2019-03-26T00:28:14.150Z,73.54
2019-03-26T00:30:43.748Z,73.65
2019-03-26T00:33:13.365Z,73.81
2019-03-26T00:35:42.981Z,73.91
2019-03-26T00:38:12.580Z,73.96
2019-03-26T00:40:42.121Z,73.96
2019-03-26T00:43:11.731Z,73.95
2019-03-26T00:45:41.351Z,73.89
2019-03-26T00:48:10.940Z,73.90
2019-03-26T00:50:40.582Z,73.93
2019-03-26T00:53:10.203Z,73.81
2019-03-26T00:55:39.837Z,73.76
2019-03-26T00:58:09.361Z,73.85
2019-03-26T01:00:44.088Z,73.90
2019-03-26T01:03:13.684Z,73.81
2019-03-26T01:05:43.307Z,73.91
2019-03-26T01:08:12.904Z,74.05
2019-03-26T01:10:42.546Z,74.16
2019-03-26T01:13:12.165Z,74.12
2019-03-26T01:15:41.780Z,74.18
2019-03-26T01:18:11.375Z,74.18
2019-03-26T01:20:41.227Z,74.22
2019-03-26T01:23:10.817Z,74.29
2019-03-26T01:25:40.471Z,74.44
2019-03-26T01:28:10.069Z,74.60
2019-03-26T01:30:39.693Z,74.78
2019-03-26T01:33:09.288Z,74.93
2019-03-26T01:35:38.905Z,75.16
2019-03-26T01:38:08.500Z,75.33
2019-03-26T01:40:38.123Z,75.40
2019-03-26T01:43:07.727Z,75.38
2019-03-26T01:45:37.338Z,75.36
2019-03-26T01:48:06.941Z,75.37
2019-03-26T01:50:36.560Z,75.30
2019-03-26T01:53:06.163Z,75.21
2019-03-26T01:55:35.784Z,75.10
2019-03-26T01:58:05.396Z,75.08
2019-03-26T02:00:35.069Z,75.01
2019-03-26T02:03:04.696Z,75.24
2019-03-26T02:05:34.374Z,75.44
2019-03-26T02:08:03.970Z,75.61
2019-03-26T02:10:33.694Z,75.76
2019-03-26T02:13:03.318Z,75.88
2019-03-26T02:15:33.882Z,76.08
2019-03-26T02:18:03.489Z,76.10
2019-03-26T02:20:33.169Z,76.20
2019-03-26T02:23:02.883Z,76.36
2019-03-26T02:25:32.509Z,76.49
2019-03-26T02:28:02.107Z,76.41
2019-03-26T02:30:31.751Z,76.44
2019-03-26T02:33:01.271Z,76.53
2019-03-26T02:35:30.904Z,76.73
2019-03-26T02:38:00.498Z,76.92
2019-03-26T02:40:30.122Z,77.01
2019-03-26T02:42:59.641Z,77.23
2019-03-26T02:45:29.270Z,77.53
2019-03-26T02:47:58.875Z,77.86
2019-03-26T02:50:28.608Z,77.97
2019-03-26T02:52:58.473Z,78.16
2019-03-26T02:55:28.106Z,78.31
2019-03-26T02:57:57.717Z,78.37
2019-03-26T03:00:27.343Z,78.58
2019-03-26T03:02:57.063Z,78.93
2019-03-26T03:05:34.995Z,79.08
2019-03-26T03:07:58.092Z,79.20
2019-03-26T03:10:27.686Z,79.13
2019-03-26T03:12:57.286Z,79.13
2019-03-26T03:15:26.908Z,79.12
2019-03-26T03:17:56.501Z,79.21
2019-03-26T03:20:26.248Z,79.42
2019-03-26T03:22:55.802Z,79.75
2019-03-26T03:25:25.443Z,80.00
2019-03-26T03:27:55.044Z,80.39
2019-03-26T03:30:24.676Z,80.62
2019-03-26T03:32:54.285Z,80.71
2019-03-26T03:35:23.904Z,81.13
2019-03-26T03:37:53.527Z,81.71
2019-03-26T03:40:23.154Z,82.11
2019-03-26T03:42:52.757Z,82.39
2019-03-26T03:45:30.037Z,82.47
2019-03-26T03:48:00.973Z,82.65
2019-03-26T03:50:32.757Z,83.17
2019-03-26T03:53:02.664Z,83.28
2019-03-26T03:55:33.219Z,83.37
2019-03-26T03:58:03.383Z,83.77
2019-03-26T04:00:41.870Z,83.80
2019-03-26T04:03:11.841Z,83.91
2019-03-26T04:05:41.586Z,84.34
2019-03-26T04:08:11.192Z,84.30
2019-03-26T04:10:40.853Z,84.35
2019-03-26T04:13:10.465Z,84.45
2019-03-26T04:15:40.115Z,84.83
2019-03-26T04:18:09.735Z,84.99
2019-03-26T04:20:39.369Z,85.07
2019-03-26T04:23:08.986Z,85.46
2019-03-26T04:25:38.623Z,85.19
2019-03-26T04:28:08.310Z,85.43
2019-03-26T04:30:38.538Z,85.32
2019-03-26T04:33:08.141Z,85.65
2019-03-26T04:35:37.764Z,85.28
2019-03-26T04:38:07.370Z,85.20
2019-03-26T04:40:37.001Z,85.08
2019-03-26T04:43:06.625Z,84.98
2019-03-26T04:45:36.247Z,84.90
2019-03-26T04:48:05.962Z,84.76
2019-03-26T04:50:35.589Z,84.73
2019-03-26T04:53:05.220Z,83.91
2019-03-26T04:55:35.179Z,83.06
2019-03-26T04:58:04.797Z,82.79
2019-03-26T05:00:34.419Z,82.75
2019-03-26T05:03:04.035Z,82.71
2019-03-26T05:05:33.658Z,82.72
2019-03-26T05:08:03.785Z,82.53
2019-03-26T05:10:33.405Z,82.44
2019-03-26T05:13:03.015Z,82.04
2019-03-26T05:15:32.639Z,82.05
2019-03-26T05:18:02.241Z,81.95
2019-03-26T05:20:31.863Z,81.78
2019-03-26T05:23:01.473Z,80.74
2019-03-26T05:25:31.104Z,80.41
2019-03-26T05:28:00.719Z,80.40
2019-03-26T05:30:33.047Z,80.12
2019-03-26T05:33:01.672Z,79.76
2019-03-26T05:35:31.260Z,79.68
2019-03-26T05:38:00.876Z,79.47
2019-03-26T05:40:30.473Z,79.04
2019-03-26T05:43:00.089Z,78.81
2019-03-26T05:45:29.695Z,78.85
2019-03-26T05:47:59.332Z,78.49
2019-03-26T05:50:28.855Z,78.57
2019-03-26T05:52:58.487Z,78.40
2019-03-26T05:55:28.086Z,78.22
2019-03-26T05:57:57.743Z,78.22
2019-03-26T06:00:27.683Z,78.19
2019-03-26T06:02:57.335Z,77.78
2019-03-26T06:05:26.948Z,77.45
2019-03-26T06:07:56.560Z,76.91
2019-03-26T06:10:26.154Z,76.69
2019-03-26T06:12:55.698Z,76.39
2019-03-26T06:15:25.307Z,76.02
2019-03-26T06:17:57.420Z,75.88
2019-03-26T06:20:26.111Z,75.33
2019-03-26T06:22:55.731Z,75.27
2019-03-26T06:25:25.336Z,74.36
2019-03-26T06:27:54.968Z,74.56
2019-03-26T06:30:24.566Z,74.85
2019-03-26T06:32:54.204Z,74.83
2019-03-26T06:35:23.746Z,74.97
2019-03-26T06:37:53.279Z,74.99
2019-03-26T06:40:22.876Z,75.05
2019-03-26T06:42:52.418Z,75.08
2019-03-26T06:45:22.034Z,75.21
2019-03-26T06:47:51.654Z,75.21
2019-03-26T06:50:21.325Z,75.31
2019-03-26T06:52:50.955Z,75.48
2019-03-26T06:55:20.485Z,75.49
2019-03-26T06:57:50.111Z,75.57
2019-03-26T07:00:29.934Z,75.50
2019-03-26T07:03:01.177Z,75.37
2019-03-26T07:05:30.793Z,75.33
2019-03-26T07:08:00.419Z,75.18
2019-03-26T07:10:30.173Z,74.87
2019-03-26T07:12:59.822Z,74.45
2019-03-26T07:15:29.421Z,74.07
2019-03-26T07:17:59.049Z,73.64
2019-03-26T07:20:28.658Z,73.38
2019-03-26T07:22:58.288Z,73.02
2019-03-26T07:25:27.810Z,72.41
2019-03-26T07:27:57.495Z,72.27
2019-03-26T07:30:46.503Z,71.57
2019-03-26T07:33:16.056Z,70.58
2019-03-26T07:35:45.664Z,69.94
2019-03-26T07:38:15.317Z,69.52
2019-03-26T07:40:44.927Z,68.02
2019-03-26T07:43:14.568Z,67.81
2019-03-26T07:45:44.175Z,67.75
2019-03-26T07:48:13.801Z,67.61
2019-03-26T07:50:43.401Z,67.47
2019-03-26T07:53:13.099Z,67.63
2019-03-26T07:55:44.065Z,66.56
2019-03-26T07:58:13.820Z,67.31
2019-03-26T08:00:43.415Z,67.49
2019-03-26T08:03:13.067Z,67.90
2019-03-26T08:05:42.670Z,67.55
2019-03-26T08:08:12.284Z,67.09
2019-03-26T08:10:41.873Z,67.14
2019-03-26T08:13:11.441Z,65.88
2019-03-26T08:15:41.144Z,65.87
2019-03-26T08:18:10.714Z,66.03
2019-03-26T08:20:40.301Z,66.13
2019-03-26T08:23:09.921Z,66.42
2019-03-26T08:25:39.521Z,66.74
2019-03-26T08:28:09.149Z,66.71
2019-03-26T08:30:38.843Z,66.64
2019-03-26T08:33:08.471Z,65.93
2019-03-26T08:35:38.079Z,66.22
2019-03-26T08:38:12.894Z,64.64
2019-03-26T08:40:39.409Z,63.77
2019-03-26T08:43:08.972Z,63.75
2019-03-26T08:45:38.577Z,63.69
2019-03-26T08:48:08.200Z,63.44
2019-03-26T08:50:37.721Z,63.77
2019-03-26T08:53:07.354Z,64.04
2019-03-26T08:55:36.964Z,64.27
2019-03-26T08:58:06.580Z,64.57
2019-03-26T09:00:36.179Z,64.46
2019-03-26T09:03:05.802Z,65.23
2019-03-26T09:05:35.422Z,65.58
2019-03-26T09:08:05.057Z,65.63
2019-03-26T09:10:34.676Z,65.94
2019-03-26T09:13:04.283Z,66.44
2019-03-26T09:15:33.914Z,67.24
2019-03-26T09:18:03.516Z,66.75
2019-03-26T09:20:33.145Z,66.51
2019-03-26T09:23:02.776Z,65.45
2019-03-26T09:25:32.381Z,66.21
2019-03-26T09:28:01.998Z,66.64
2019-03-26T09:30:31.589Z,65.91
2019-03-26T09:33:01.226Z,63.97
2019-03-26T09:35:30.851Z,63.51
2019-03-26T09:38:00.456Z,63.33
2019-03-26T09:40:30.082Z,62.67
2019-03-26T09:42:59.634Z,61.46
2019-03-26T09:45:29.236Z,60.84
2019-03-26T09:47:58.855Z,60.81
2019-03-26T09:50:35.887Z,61.60
2019-03-26T09:53:06.068Z,60.58
2019-03-26T09:55:35.676Z,59.17
2019-03-26T09:58:05.326Z,59.27
2019-03-26T10:00:35.054Z,59.30
2019-03-26T10:03:04.774Z,58.34
2019-03-26T10:05:34.389Z,58.69
2019-03-26T10:08:03.978Z,58.64
2019-03-26T10:10:33.610Z,58.85
2019-03-26T10:13:03.202Z,58.11
2019-03-26T10:15:32.821Z,58.52
2019-03-26T10:18:02.407Z,59.02
2019-03-26T10:20:32.031Z,59.21
2019-03-26T10:23:01.635Z,59.58
2019-03-26T10:25:31.269Z,60.29
2019-03-26T10:28:00.860Z,61.04
2019-03-26T10:30:38.189Z,61.22
2019-03-26T10:33:08.374Z,60.77
2019-03-26T10:35:38.119Z,62.37
2019-03-26T10:38:07.741Z,63.78
2019-03-26T10:40:38.007Z,63.61
2019-03-26T10:43:07.908Z,64.27
2019-03-26T10:45:37.527Z,64.25
2019-03-26T10:48:07.133Z,64.74
2019-03-26T10:50:36.764Z,65.14
2019-03-26T10:53:06.540Z,65.07
2019-03-26T10:55:36.166Z,64.61
2019-03-26T10:58:05.767Z,64.56
2019-03-26T11:00:35.410Z,64.02
2019-03-26T11:03:05.016Z,61.44
2019-03-26T11:05:34.651Z,61.52
2019-03-26T11:08:04.250Z,61.27
2019-03-26T11:10:33.893Z,61.43
2019-03-26T11:13:03.535Z,61.00
2019-03-26T11:15:33.126Z,60.73
2019-03-26T11:18:02.725Z,59.99
2019-03-26T11:20:32.367Z,59.70
2019-03-26T11:23:02.090Z,59.82
2019-03-26T11:25:31.822Z,60.07
2019-03-26T11:28:01.450Z,60.06
2019-03-26T11:30:31.075Z,60.10
2019-03-26T11:33:00.675Z,60.65
2019-03-26T11:35:30.306Z,60.75
2019-03-26T11:37:59.936Z,63.03
2019-03-26T11:40:29.581Z,64.12
2019-03-26T11:42:59.182Z,65.52
2019-03-26T11:45:28.811Z,65.13
2019-03-26T11:47:58.336Z,65.38
2019-03-26T11:50:27.967Z,64.83
2019-03-26T11:52:57.578Z,64.45
2019-03-26T11:55:27.212Z,64.13
2019-03-26T11:57:56.896Z,63.43
2019-03-26T12:00:31.428Z,63.30
2019-03-26T12:03:01.036Z,63.37
2019-03-26T12:05:30.719Z,63.20
2019-03-26T12:08:00.317Z,62.70
2019-03-26T12:10:29.956Z,62.86
2019-03-26T12:12:59.554Z,64.15
2019-03-26T12:15:29.180Z,63.06
2019-03-26T12:17:58.795Z,63.08
2019-03-26T12:20:28.418Z,63.73
2019-03-26T12:22:58.030Z,64.87
2019-03-26T12:25:27.742Z,62.51
2019-03-26T12:27:57.261Z,62.71
2019-03-26T12:30:34.556Z,61.91
2019-03-26T12:33:04.562Z,60.98
2019-03-26T12:35:34.198Z,61.10
2019-03-26T12:38:17.174Z,61.49
2019-03-26T12:40:46.926Z,60.55
2019-03-26T12:43:16.659Z,61.52
2019-03-26T12:45:46.778Z,61.11
2019-03-26T12:48:16.386Z,61.95
2019-03-26T12:50:46.041Z,58.91
2019-03-26T12:53:15.633Z,59.24
2019-03-26T12:55:45.256Z,59.01
2019-03-26T12:58:14.862Z,59.74
2019-03-26T13:00:44.501Z,59.23
2019-03-26T13:03:14.125Z,59.36
2019-03-26T13:05:43.751Z,59.38
2019-03-26T13:08:13.372Z,59.59
2019-03-26T13:10:52.811Z,59.71
2019-03-26T13:13:14.311Z,60.59
2019-03-26T13:15:43.941Z,60.35
2019-03-26T13:18:13.546Z,60.16
2019-03-26T13:20:43.184Z,59.86
2019-03-26T13:23:12.808Z,60.31
2019-03-26T13:25:52.705Z,60.54
2019-03-26T13:28:22.264Z,60.05
2019-03-26T13:30:51.892Z,60.29
2019-03-26T13:33:21.493Z,60.56
2019-03-26T13:35:51.136Z,60.62
2019-03-26T13:38:20.705Z,61.21
2019-03-26T13:40:50.356Z,62.09
2019-03-26T13:43:19.883Z,62.70
2019-03-26T13:45:49.584Z,63.17
2019-03-26T13:48:19.185Z,64.25
2019-03-26T13:50:48.890Z,64.99
2019-03-26T13:53:18.490Z,65.54
2019-03-26T13:55:48.119Z,65.68
2019-03-26T13:58:17.718Z,66.34
2019-03-26T14:00:47.343Z,67.02
2019-03-26T14:03:16.954Z,67.41
2019-03-26T14:05:46.580Z,68.14
2019-03-26T14:08:16.183Z,68.33
2019-03-26T14:10:45.811Z,68.62
2019-03-26T14:13:15.341Z,68.78
2019-03-26T14:15:44.952Z,68.99
2019-03-26T14:18:14.557Z,68.64
2019-03-26T14:20:44.182Z,68.97
2019-03-26T14:23:13.789Z,69.25
2019-03-26T14:25:43.339Z,69.60
2019-03-26T14:28:12.941Z,69.92
2019-03-26T14:30:44.387Z,70.09
2019-03-26T14:33:14.254Z,69.89
2019-03-26T14:35:43.932Z,70.27
2019-03-26T14:38:13.548Z,70.58
2019-03-26T14:40:54.118Z,70.50
2019-03-26T14:43:14.519Z,70.69
2019-03-26T14:45:44.126Z,70.60
2019-03-26T14:48:13.755Z,70.68
2019-03-26T14:50:43.352Z,70.83
2019-03-26T14:53:12.975Z,70.95
2019-03-26T14:55:42.579Z,71.05
2019-03-26T14:58:12.210Z,71.18
2019-03-26T15:00:41.811Z,71.48
2019-03-26T15:03:11.448Z,71.51
2019-03-26T15:05:40.966Z,71.48
2019-03-26T15:08:10.592Z,71.67
2019-03-26T15:10:40.205Z,71.69
2019-03-26T15:13:09.834Z,71.74
2019-03-26T15:15:39.441Z,71.53
2019-03-26T15:18:09.070Z,71.34
2019-03-26T15:20:38.655Z,71.46
2019-03-26T15:23:08.280Z,71.64
2019-03-26T15:25:37.887Z,71.56
2019-03-26T15:28:07.589Z,71.80
2019-03-26T15:30:37.195Z,71.93
2019-03-26T15:33:07.290Z,72.18
2019-03-26T15:35:36.819Z,72.18
2019-03-26T15:38:06.447Z,72.40
2019-03-26T15:40:36.079Z,72.93
2019-03-26T15:43:05.711Z,73.13
2019-03-26T15:45:35.308Z,72.99
2019-03-26T15:48:04.953Z,73.13
2019-03-26T15:50:52.702Z,73.34
2019-03-26T15:53:22.328Z,73.26
2019-03-26T15:55:51.918Z,73.30
2019-03-26T15:58:21.546Z,73.35
2019-03-26T16:00:51.142Z,73.05
2019-03-26T16:03:22.503Z,73.29
2019-03-26T16:05:52.396Z,73.22
2019-03-26T16:08:22.019Z,73.15
2019-03-26T16:10:51.645Z,72.90
2019-03-26T16:13:21.242Z,73.07
2019-03-26T16:15:51.898Z,73.13
2019-03-26T16:18:21.641Z,73.13
2019-03-26T16:20:51.166Z,73.05
2019-03-26T16:23:20.807Z,72.95
2019-03-26T16:25:50.423Z,72.81
2019-03-26T16:28:19.983Z,72.79
2019-03-26T16:30:49.625Z,72.70
2019-03-26T16:33:20.712Z,72.78
2019-03-26T16:35:50.312Z,72.69
2019-03-26T16:38:19.938Z,72.55
2019-03-26T16:40:54.508Z,72.61
2019-03-26T16:43:24.117Z,72.65
2019-03-26T16:45:53.711Z,72.76
2019-03-26T16:48:23.327Z,72.73
2019-03-26T16:50:52.935Z,72.67
2019-03-26T16:53:22.559Z,72.87
2019-03-26T16:55:52.167Z,72.98
2019-03-26T16:58:21.820Z,73.10
2019-03-26T17:00:54.204Z,73.18
2019-03-26T17:03:31.339Z,73.21
2019-03-26T17:05:55.849Z,73.48
2019-03-26T17:08:25.479Z,73.69
2019-03-26T17:10:55.083Z,73.86
2019-03-26T17:13:24.733Z,74.05
2019-03-26T17:15:54.325Z,74.23
2019-03-26T17:18:24.459Z,74.43
2019-03-26T17:20:54.055Z,74.85
2019-03-26T17:23:23.691Z,75.23
2019-03-26T17:25:53.288Z,75.62
2019-03-26T17:28:22.834Z,75.90
2019-03-26T17:30:52.443Z,76.09
2019-03-26T17:33:23.796Z,76.16
2019-03-26T17:35:53.403Z,76.32
2019-03-26T17:38:23.022Z,76.47
2019-03-26T17:40:52.697Z,76.55
2019-03-26T17:43:22.164Z,76.73
2019-03-26T17:45:51.762Z,76.75
2019-03-26T17:48:21.395Z,76.99
2019-03-26T17:50:50.914Z,77.20
2019-03-26T17:53:20.546Z,77.24
2019-03-26T17:55:50.150Z,77.36
2019-03-26T17:58:19.794Z,77.36
2019-03-26T18:00:49.393Z,77.37
2019-03-26T18:03:26.197Z,77.17
2019-03-26T18:05:50.440Z,77.26
2019-03-26T18:08:20.065Z,77.28
2019-03-26T18:10:49.665Z,77.33
2019-03-26T18:13:19.283Z,77.37
2019-03-26T18:15:48.894Z,77.35
2019-03-26T18:18:18.517Z,77.29
2019-03-26T18:20:48.114Z,77.15
2019-03-26T18:23:17.742Z,77.13
2019-03-26T18:25:47.340Z,77.16
2019-03-26T18:28:16.963Z,77.19
2019-03-26T18:30:46.562Z,77.08
2019-03-26T18:33:16.181Z,77.15
2019-03-26T18:35:45.781Z,77.13
2019-03-26T18:38:15.414Z,77.16
2019-03-26T18:40:45.043Z,77.04
2019-03-26T18:43:14.660Z,77.04
2019-03-26T18:45:44.282Z,77.03
2019-03-26T18:48:13.900Z,77.03
2019-03-26T18:50:43.510Z,77.02
2019-03-26T18:53:13.141Z,76.97
2019-03-26T18:55:42.746Z,76.91
2019-03-26T18:58:12.367Z,76.86
2019-03-26T19:00:41.963Z,76.81
2019-03-26T19:03:11.673Z,76.83
2019-03-26T19:05:41.256Z,76.84
2019-03-26T19:08:10.878Z,76.68
2019-03-26T19:10:40.472Z,76.55
2019-03-26T19:13:19.215Z,76.53
2019-03-26T19:15:41.420Z,76.43
2019-03-26T19:18:11.041Z,76.20
2019-03-26T19:20:40.641Z,76.32
2019-03-26T19:23:10.261Z,76.27
2019-03-26T19:25:39.862Z,76.26
2019-03-26T19:28:09.486Z,76.22
2019-03-26T19:30:39.090Z,75.84
2019-03-26T19:33:08.640Z,76.00
2019-03-26T19:35:38.235Z,76.04
2019-03-26T19:38:07.836Z,75.94
2019-03-26T19:40:37.486Z,76.29
2019-03-26T19:43:11.305Z,76.57
2019-03-26T19:45:38.450Z,76.81
2019-03-26T19:48:08.131Z,77.14
2019-03-26T19:50:37.748Z,77.44
2019-03-26T19:53:07.371Z,77.74
2019-03-26T19:55:37.250Z,78.00
2019-03-26T19:58:06.839Z,78.28
2019-03-26T20:00:36.460Z,78.48
2019-03-26T20:03:06.058Z,78.63
2019-03-26T20:05:35.799Z,78.86
2019-03-26T20:08:05.982Z,79.07
2019-03-26T20:10:35.607Z,79.26
2019-03-26T20:13:05.203Z,79.44
2019-03-26T20:15:34.816Z,79.59
2019-03-26T20:18:04.418Z,79.72
2019-03-26T20:20:34.041Z,79.91
2019-03-26T20:23:03.648Z,80.09
2019-03-26T20:25:33.269Z,80.25
2019-03-26T20:28:02.874Z,80.42
2019-03-26T20:30:32.535Z,80.58
2019-03-26T20:33:02.134Z,80.77
2019-03-26T20:35:31.767Z,80.96
2019-03-26T20:38:01.365Z,81.09
2019-03-26T20:40:31.021Z,81.28
2019-03-26T20:43:00.626Z,81.49
2019-03-26T20:45:30.248Z,81.60
2019-03-26T20:47:59.851Z,81.67
2019-03-26T20:50:29.472Z,81.78
2019-03-26T20:52:59.068Z,81.87
2019-03-26T20:55:35.264Z,81.97
2019-03-26T20:58:05.330Z,82.08
2019-03-26T21:00:39.665Z,82.20
2019-03-26T21:03:09.273Z,82.31
2019-03-26T21:05:38.936Z,82.47
2019-03-26T21:08:08.531Z,82.57
2019-03-26T21:10:38.141Z,82.59
2019-03-26T21:13:07.737Z,82.61
2019-03-26T21:15:37.364Z,82.72
2019-03-26T21:18:06.971Z,82.84
2019-03-26T21:20:36.586Z,82.99
2019-03-26T21:23:06.300Z,83.05
2019-03-26T21:25:35.992Z,83.11
2019-03-26T21:28:06.292Z,83.18
2019-03-26T21:30:35.923Z,83.17
2019-03-26T21:33:05.520Z,83.26
2019-03-26T21:35:35.140Z,83.18
2019-03-26T21:38:04.744Z,83.22
2019-03-26T21:40:34.391Z,83.30
2019-03-26T21:43:03.985Z,83.24
2019-03-26T21:45:40.768Z,83.26
2019-03-26T21:48:11.176Z,83.07
2019-03-26T21:50:40.802Z,83.17
2019-03-26T21:53:10.400Z,82.99
2019-03-26T21:55:40.054Z,83.00
2019-03-26T21:58:09.652Z,82.71
2019-03-26T22:00:39.272Z,82.89
2019-03-26T22:03:08.871Z,82.92
2019-03-26T22:05:38.493Z,82.92
2019-03-26T22:08:08.104Z,82.98
2019-03-26T22:10:37.724Z,83.00
2019-03-26T22:13:07.324Z,82.94
2019-03-26T22:15:36.953Z,82.94
2019-03-26T22:18:06.554Z,82.91
2019-03-26T22:20:36.167Z,82.91
2019-03-26T22:23:05.938Z,82.88
2019-03-26T22:25:35.868Z,82.89
2019-03-26T22:28:05.467Z,82.87
2019-03-26T22:30:35.011Z,82.88
2019-03-26T22:33:04.606Z,82.91
2019-03-26T22:35:34.245Z,82.92
2019-03-26T22:38:03.858Z,82.86
2019-03-26T22:40:33.495Z,82.74
2019-03-26T22:43:03.092Z,82.68
2019-03-26T22:45:32.729Z,82.62
2019-03-26T22:48:02.324Z,82.56
2019-03-26T22:50:31.944Z,82.43
2019-03-26T22:53:01.558Z,82.40
2019-03-26T22:55:31.180Z,82.37
2019-03-26T22:58:00.775Z,82.32
2019-03-26T23:00:35.446Z,82.29
2019-03-26T23:03:06.087Z,82.28
2019-03-26T23:05:35.833Z,82.38
2019-03-26T23:08:05.423Z,82.48
2019-03-26T23:10:35.042Z,82.56
2019-03-26T23:13:04.642Z,82.58
2019-03-26T23:15:34.273Z,82.68
2019-03-26T23:18:03.875Z,82.78
2019-03-26T23:20:33.493Z,82.87
2019-03-26T23:23:03.100Z,82.90
2019-03-26T23:25:32.739Z,82.93
2019-03-26T23:28:02.342Z,83.03
2019-03-26T23:30:31.961Z,83.03
2019-03-26T23:33:01.551Z,83.09
2019-03-26T23:35:31.180Z,83.08
2019-03-26T23:38:00.785Z,83.06
2019-03-26T23:40:30.434Z,83.09
2019-03-26T23:43:00.034Z,83.17
2019-03-26T23:45:29.583Z,83.19
2019-03-26T23:47:59.182Z,83.24
2019-03-26T23:50:28.723Z,83.24
2019-03-26T23:52:58.320Z,83.30
2019-03-26T23:55:27.948Z,83.31
2019-03-26T23:57:57.555Z,83.30
